Mars — XPC8385 — position and weather

sailwx.info

Track history (hours):
 
Tides and Currents Weather Stations Pressure Air Temp Water Temp Dewpoint Dewpoint Depression Visibility Wind Speed Wind Dir Waves Ship Positions

Mars

Last reported at 2016-Jun-30 22:29 UTC. Time now 2016-Jun-30 23:13 UTC.
Position N 55°17' E 014°48'.

Length 14 m; draft 1.7 m.

Type: Pilot. MMSI: 219001058.

Date/timePositionNaut miles runAvg speedWind from/ knotsBaromVisibWave heightAir tempDewpointWater temp
2016-Jun-30 22:29N 55°17' E 014°48'0 0.0
2016-Jun-30 21:29N 55°17' E 014°48'0 0.0
2016-Jun-30 20:11N 55°17' E 014°48'0 0.0
2016-Jun-30 19:29N 55°17' E 014°48'0 0.0
2016-Jun-30 18:29N 55°17' E 014°48'0 0.0
2016-Jun-30 17:29N 55°17' E 014°48'0 0.4
2016-Jun-30 16:33N 55°17' E 014°48'0 0.4
2016-Jun-30 15:30N 55°17' E 014°48'0 0.0
2016-Jun-30 14:30N 55°17' E 014°48'0 0.0
2016-Jun-30 13:33N 55°17' E 014°48'0 0.0
2016-Jun-30 12:32N 55°17' E 014°48'0 0.0
2016-Jun-30 11:30N 55°17' E 014°48'0 0.0
2016-Jun-30 10:30N 55°17' E 014°48'0 0.0
2016-Jun-30 09:26N 55°17' E 014°48'0 0.0
2016-Jun-30 08:32N 55°17' E 014°48'0 0.0
2016-Jun-30 07:32N 55°17' E 014°48'0 0.0
2016-Jun-30 06:32N 55°17' E 014°48'0 0.0
2016-Jun-30 05:32N 55°17' E 014°48'0 0.0
2016-Jun-30 04:32N 55°17' E 014°48'0 0.0
2016-Jun-30 03:32N 55°17' E 014°48'0 0.0
2016-Jun-30 02:14N 55°17' E 014°48'0 0.0
2016-Jun-30 01:32N 55°17' E 014°48'0 0.0
2016-Jun-30 00:32N 55°17' E 014°48'0 0.0
2016-Jun-29 23:32N 55°17' E 014°48'0 0.0
2016-Jun-29 22:32N 55°17' E 014°48'0 0.0
2016-Jun-29 21:32N 55°17' E 014°48'0 0.0
2016-Jun-29 20:31N 55°17' E 014°48'0 0.0
2016-Jun-29 19:31N 55°17' E 014°48'2 2.1
2016-Jun-29 18:34N 55°19' E 014°47'2 1.9
2016-Jun-29 17:28N 55°17' E 014°48'0 0.0
2016-Jun-29 16:28N 55°17' E 014°48'0 0.0
2016-Jun-29 14:28N 55°17' E 014°48'0 0.0
2016-Jun-29 13:28N 55°17' E 014°48'0 0.0
2016-Jun-29 12:28N 55°17' E 014°48'0 0.0
2016-Jun-29 11:22N 55°17' E 014°48'4 4.3
2016-Jun-29 10:33N 55°19' E 014°44'4 1.7
2016-Jun-29 08:31N 55°17' E 014°48'0 0.0
2016-Jun-29 07:19N 55°17' E 014°48'0 0.0
2016-Jun-29 06:19N 55°17' E 014°48'0 0.0
2016-Jun-29 05:31N 55°17' E 014°48'1 1.0
2016-Jun-29 04:34N 55°18' E 014°47'1 0.8
2016-Jun-29 03:21N 55°17' E 014°48'0 0.0
2016-Jun-29 02:21N 55°17' E 014°48'0 0.0
2016-Jun-29 01:27N 55°17' E 014°48'0 0.0
2016-Jun-29 00:33N 55°17' E 014°48'1 1.5
2016-Jun-28 23:33N 55°18' E 014°47'1 1.4
2016-Jun-28 22:30N 55°17' E 014°48'0 0.0
2016-Jun-28 21:32N 55°17' E 014°48'0 0.0
2016-Jun-28 20:25N 55°17' E 014°48'0 0.0
2016-Jun-28 19:31N 55°17' E 014°48'0 0.0
2016-Jun-28 18:31N 55°17' E 014°48'0 0.0
2016-Jun-28 17:31N 55°17' E 014°48'0 0.0
2016-Jun-28 16:25N 55°17' E 014°48'0 0.0
2016-Jun-28 15:30N 55°17' E 014°48'0 0.0
2016-Jun-28 14:30N 55°17' E 014°48'1 1.1
2016-Jun-28 13:33N 55°17' E 014°49'1 1.0
2016-Jun-28 12:30N 55°17' E 014°48'0 0.0
2016-Jun-28 11:33N 55°17' E 014°48'0 0.0
2016-Jun-28 10:28N 55°17' E 014°48'0 0.0
2016-Jun-28 09:16N 55°17' E 014°48'0 0.0
2016-Jun-28 08:22N 55°17' E 014°48'0 0.0
2016-Jun-28 07:28N 55°17' E 014°48'0 0.0
2016-Jun-28 04:22N 55°17' E 014°48'0 0.0
2016-Jun-28 03:22N 55°17' E 014°48'0 0.0
2016-Jun-28 02:22N 55°17' E 014°48'0 0.0
2016-Jun-28 01:28N 55°17' E 014°48'0 0.0
2016-Jun-28 00:22N 55°17' E 014°48'0 0.0
2016-Jun-27 23:28N 55°17' E 014°48'0 0.0
2016-Jun-27 22:28N 55°17' E 014°48'0 0.0
2016-Jun-27 21:28N 55°17' E 014°48'0 0.0
2016-Jun-27 20:28N 55°17' E 014°48'0 0.0
2016-Jun-27 19:30N 55°17' E 014°48'0 0.0
2016-Jun-27 18:24N 55°17' E 014°48'0 0.0
2016-Jun-27 17:24N 55°17' E 014°48'0 0.0
2016-Jun-27 16:30N 55°17' E 014°48'0 0.0
2016-Jun-27 15:18N 55°17' E 014°48'0 0.0
2016-Jun-27 14:30N 55°17' E 014°48'0 0.0
2016-Jun-27 13:30N 55°17' E 014°48'0 0.0
2016-Jun-27 08:09N 55°17' E 014°48'2 0.1
2016-Jun-26 09:34N 55°18' E 014°51'2 0.2
2016-Jun-25 22:23N 55°17' E 014°48'0 0.0
2016-Jun-25 13:10N 55°17' E 014°48'2 3.9
2016-Jun-25 12:33N 55°19' E 014°46'2 2.4
2016-Jun-25 11:33N 55°17' E 014°48'0 0.4
2016-Jun-25 10:33N 55°17' E 014°48'0 0.3
2016-Jun-25 09:30N 55°17' E 014°48'1 0.2
2016-Jun-25 04:33N 55°18' E 014°48'1 0.2
2016-Jun-24 22:27N 55°17' E 014°48'0 0.0
2016-Jun-24 21:21N 55°17' E 014°48'0 0.0
2016-Jun-24 20:33N 55°17' E 014°48'3 3.0
2016-Jun-24 19:33N 55°19' E 014°51'3 1.3
2016-Jun-24 17:20N 55°17' E 014°48'0 0.0
2016-Jun-24 09:20N 55°17' E 014°48'0 0.0
2016-Jun-24 08:23N 55°17' E 014°48'0 0.0
2016-Jun-24 03:11N 55°17' E 014°48'0 0.0
2016-Jun-24 02:17N 55°17' E 014°48'0 0.0
2016-Jun-24 01:17N 55°17' E 014°48'0 0.0
2016-Jun-23 22:26N 55°17' E 014°48'0 0.0
2016-Jun-23 21:22N 55°17' E 014°48'0 0.0
2016-Jun-23 15:28N 55°17' E 014°48'0 0.0
2016-Jun-23 14:22N 55°17' E 014°48'0 0.0
2016-Jun-23 13:22N 55°17' E 014°48'2 0.6
2016-Jun-23 09:33N 55°19' E 014°48'2 1.2
2016-Jun-23 07:30N 55°17' E 014°48'0 0.0
2016-Jun-23 05:30N 55°17' E 014°48'0 0.0
2016-Jun-23 04:24N 55°17' E 014°48'0 0.0
2016-Jun-23 03:24N 55°17' E 014°48'0 0.0
2016-Jun-23 02:28N 55°17' E 014°48'0 0.0
2016-Jun-23 01:28N 55°17' E 014°48'0 0.0
2016-Jun-23 00:33N 55°17' E 014°48'0 0.0
2016-Jun-22 23:33N 55°17' E 014°48'0 0.0
2016-Jun-22 22:33N 55°17' E 014°48'0 0.0
2016-Jun-22 21:33N 55°17' E 014°48'0 0.0
2016-Jun-22 20:33N 55°17' E 014°48'1 1.1
2016-Jun-22 19:33N 55°18' E 014°47'1 0.9
2016-Jun-22 18:18N 55°17' E 014°48'0 0.0
2016-Jun-22 17:30N 55°17' E 014°48'0 0.0
2016-Jun-22 16:18N 55°17' E 014°48'0 0.0
2016-Jun-22 15:30N 55°17' E 014°48'0 0.0
2016-Jun-22 14:18N 55°17' E 014°48'0 0.0
2016-Jun-22 13:30N 55°17' E 014°48'0 0.0
2016-Jun-22 12:23N 55°17' E 014°48'0 0.0
2016-Jun-22 11:33N 55°17' E 014°48'0 0.0
2016-Jun-22 10:20N 55°17' E 014°48'0 0.0
2016-Jun-22 09:14N 55°17' E 014°48'0 0.0
2016-Jun-22 08:32N 55°17' E 014°48'0 0.0
2016-Jun-22 07:26N 55°17' E 014°48'0 0.0
2016-Jun-22 06:26N 55°17' E 014°48'0 0.0
2016-Jun-22 05:26N 55°17' E 014°48'0 0.0
2016-Jun-22 04:32N 55°17' E 014°48'0 0.0
2016-Jun-22 03:26N 55°17' E 014°48'0 0.0
2016-Jun-22 02:32N 55°17' E 014°48'0 0.0
2016-Jun-22 01:32N 55°17' E 014°48'0 0.0
2016-Jun-22 00:32N 55°17' E 014°48'0 0.0
2016-Jun-21 23:32N 55°17' E 014°48'0 0.0
2016-Jun-21 22:32N 55°17' E 014°48'0 0.0
2016-Jun-21 21:32N 55°17' E 014°48'0 0.0
2016-Jun-21 20:32N 55°17' E 014°48'0 0.0
2016-Jun-21 19:32N 55°17' E 014°48'0 0.0
2016-Jun-21 18:29N 55°17' E 014°48'0 0.0
2016-Jun-21 17:26N 55°17' E 014°48'2 1.9
2016-Jun-21 16:34N 55°17' E 014°51'2 0.8
2016-Jun-21 14:22N 55°17' E 014°48'0 0.0
2016-Jun-21 13:28N 55°17' E 014°48'0 0.0
2016-Jun-21 12:22N 55°17' E 014°48'0 0.0
2016-Jun-21 11:22N 55°17' E 014°48'0 0.0
2016-Jun-21 10:28N 55°17' E 014°48'0 0.0
2016-Jun-21 09:31N 55°17' E 014°48'0 0.0
2016-Jun-21 08:16N 55°17' E 014°48'0 0.0
2016-Jun-21 07:16N 55°17' E 014°48'3 1.0
2016-Jun-21 04:33N 55°19' E 014°47'3 2.0
2016-Jun-21 03:11N 55°17' E 014°48'0 0.0
2016-Jun-21 02:29N 55°17' E 014°48'0 0.0
2016-Jun-21 01:29N 55°17' E 014°48'0 0.0
2016-Jun-21 00:17N 55°17' E 014°48'0 0.0
2016-Jun-20 23:29N 55°17' E 014°48'3 2.8
2016-Jun-20 22:33N 55°19' E 014°46'  
Track history (hours):
 
Tides and Currents Weather Stations Pressure Air Temp Water Temp Dewpoint Dewpoint Depression Visibility Wind Speed Wind Dir Waves Ship Positions

Mars

Last reported at 2016-Jun-30 22:29 UTC. Time now 2016-Jun-30 23:13 UTC.
Position N 55°17' E 014°48'.

Length 14 m; draft 1.7 m.

Type: Pilot. MMSI: 219001058.

Date/timePositionNaut miles runAvg speedWind from/ knotsBaromVisibWave heightAir tempDewpointWater temp
2016-Jun-30 22:29N 55°17' E 014°48'0 0.0
2016-Jun-30 21:29N 55°17' E 014°48'0 0.0
2016-Jun-30 20:11N 55°17' E 014°48'0 0.0
2016-Jun-30 19:29N 55°17' E 014°48'0 0.0
2016-Jun-30 18:29N 55°17' E 014°48'0 0.0
2016-Jun-30 17:29N 55°17' E 014°48'0 0.4
2016-Jun-30 16:33N 55°17' E 014°48'0 0.4
2016-Jun-30 15:30N 55°17' E 014°48'0 0.0
2016-Jun-30 14:30N 55°17' E 014°48'0 0.0
2016-Jun-30 13:33N 55°17' E 014°48'0 0.0
2016-Jun-30 12:32N 55°17' E 014°48'0 0.0
2016-Jun-30 11:30N 55°17' E 014°48'0 0.0
2016-Jun-30 10:30N 55°17' E 014°48'0 0.0
2016-Jun-30 09:26N 55°17' E 014°48'0 0.0
2016-Jun-30 08:32N 55°17' E 014°48'0 0.0
2016-Jun-30 07:32N 55°17' E 014°48'0 0.0
2016-Jun-30 06:32N 55°17' E 014°48'0 0.0
2016-Jun-30 05:32N 55°17' E 014°48'0 0.0
2016-Jun-30 04:32N 55°17' E 014°48'0 0.0
2016-Jun-30 03:32N 55°17' E 014°48'0 0.0
2016-Jun-30 02:14N 55°17' E 014°48'0 0.0
2016-Jun-30 01:32N 55°17' E 014°48'0 0.0
2016-Jun-30 00:32N 55°17' E 014°48'0 0.0
2016-Jun-29 23:32N 55°17' E 014°48'0 0.0
2016-Jun-29 22:32N 55°17' E 014°48'0 0.0
2016-Jun-29 21:32N 55°17' E 014°48'0 0.0
2016-Jun-29 20:31N 55°17' E 014°48'0 0.0
2016-Jun-29 19:31N 55°17' E 014°48'2 2.1
2016-Jun-29 18:34N 55°19' E 014°47'2 1.9
2016-Jun-29 17:28N 55°17' E 014°48'0 0.0
2016-Jun-29 16:28N 55°17' E 014°48'0 0.0
2016-Jun-29 14:28N 55°17' E 014°48'0 0.0
2016-Jun-29 13:28N 55°17' E 014°48'0 0.0
2016-Jun-29 12:28N 55°17' E 014°48'0 0.0
2016-Jun-29 11:22N 55°17' E 014°48'4 4.3
2016-Jun-29 10:33N 55°19' E 014°44'4 1.7
2016-Jun-29 08:31N 55°17' E 014°48'0 0.0
2016-Jun-29 07:19N 55°17' E 014°48'0 0.0
2016-Jun-29 06:19N 55°17' E 014°48'0 0.0
2016-Jun-29 05:31N 55°17' E 014°48'1 1.0
2016-Jun-29 04:34N 55°18' E 014°47'1 0.8
2016-Jun-29 03:21N 55°17' E 014°48'0 0.0
2016-Jun-29 02:21N 55°17' E 014°48'0 0.0
2016-Jun-29 01:27N 55°17' E 014°48'0 0.0
2016-Jun-29 00:33N 55°17' E 014°48'1 1.5
2016-Jun-28 23:33N 55°18' E 014°47'1 1.4
2016-Jun-28 22:30N 55°17' E 014°48'0 0.0
2016-Jun-28 21:32N 55°17' E 014°48'0 0.0
2016-Jun-28 20:25N 55°17' E 014°48'0 0.0
2016-Jun-28 19:31N 55°17' E 014°48'0 0.0
2016-Jun-28 18:31N 55°17' E 014°48'0 0.0
2016-Jun-28 17:31N 55°17' E 014°48'0 0.0
2016-Jun-28 16:25N 55°17' E 014°48'0 0.0
2016-Jun-28 15:30N 55°17' E 014°48'0 0.0
2016-Jun-28 14:30N 55°17' E 014°48'1 1.1
2016-Jun-28 13:33N 55°17' E 014°49'1 1.0
2016-Jun-28 12:30N 55°17' E 014°48'0 0.0
2016-Jun-28 11:33N 55°17' E 014°48'0 0.0
2016-Jun-28 10:28N 55°17' E 014°48'0 0.0
2016-Jun-28 09:16N 55°17' E 014°48'0 0.0
2016-Jun-28 08:22N 55°17' E 014°48'0 0.0
2016-Jun-28 07:28N 55°17' E 014°48'0 0.0
2016-Jun-28 04:22N 55°17' E 014°48'0 0.0
2016-Jun-28 03:22N 55°17' E 014°48'0 0.0
2016-Jun-28 02:22N 55°17' E 014°48'0 0.0
2016-Jun-28 01:28N 55°17' E 014°48'0 0.0
2016-Jun-28 00:22N 55°17' E 014°48'0 0.0
2016-Jun-27 23:28N 55°17' E 014°48'0 0.0
2016-Jun-27 22:28N 55°17' E 014°48'0 0.0
2016-Jun-27 21:28N 55°17' E 014°48'0 0.0
2016-Jun-27 20:28N 55°17' E 014°48'0 0.0
2016-Jun-27 19:30N 55°17' E 014°48'0 0.0
2016-Jun-27 18:24N 55°17' E 014°48'0 0.0
2016-Jun-27 17:24N 55°17' E 014°48'0 0.0
2016-Jun-27 16:30N 55°17' E 014°48'0 0.0
2016-Jun-27 15:18N 55°17' E 014°48'0 0.0
2016-Jun-27 14:30N 55°17' E 014°48'0 0.0
2016-Jun-27 13:30N 55°17' E 014°48'0 0.0
2016-Jun-27 08:09N 55°17' E 014°48'2 0.1
2016-Jun-26 09:34N 55°18' E 014°51'2 0.2
2016-Jun-25 22:23N 55°17' E 014°48'0 0.0
2016-Jun-25 13:10N 55°17' E 014°48'2 3.9
2016-Jun-25 12:33N 55°19' E 014°46'2 2.4
2016-Jun-25 11:33N 55°17' E 014°48'0 0.4
2016-Jun-25 10:33N 55°17' E 014°48'0 0.3
2016-Jun-25 09:30N 55°17' E 014°48'1 0.2
2016-Jun-25 04:33N 55°18' E 014°48'1 0.2
2016-Jun-24 22:27N 55°17' E 014°48'0 0.0
2016-Jun-24 21:21N 55°17' E 014°48'0 0.0
2016-Jun-24 20:33N 55°17' E 014°48'3 3.0
2016-Jun-24 19:33N 55°19' E 014°51'3 1.3
2016-Jun-24 17:20N 55°17' E 014°48'0 0.0
2016-Jun-24 09:20N 55°17' E 014°48'0 0.0
2016-Jun-24 08:23N 55°17' E 014°48'0 0.0
2016-Jun-24 03:11N 55°17' E 014°48'0 0.0
2016-Jun-24 02:17N 55°17' E 014°48'0 0.0
2016-Jun-24 01:17N 55°17' E 014°48'0 0.0
2016-Jun-23 22:26N 55°17' E 014°48'0 0.0
2016-Jun-23 21:22N 55°17' E 014°48'0 0.0
2016-Jun-23 15:28N 55°17' E 014°48'0 0.0
2016-Jun-23 14:22N 55°17' E 014°48'0 0.0
2016-Jun-23 13:22N 55°17' E 014°48'2 0.6
2016-Jun-23 09:33N 55°19' E 014°48'2 1.2
2016-Jun-23 07:30N 55°17' E 014°48'0 0.0
2016-Jun-23 05:30N 55°17' E 014°48'0 0.0
2016-Jun-23 04:24N 55°17' E 014°48'0 0.0
2016-Jun-23 03:24N 55°17' E 014°48'0 0.0
2016-Jun-23 02:28N 55°17' E 014°48'0 0.0
2016-Jun-23 01:28N 55°17' E 014°48'0 0.0
2016-Jun-23 00:33N 55°17' E 014°48'0 0.0
2016-Jun-22 23:33N 55°17' E 014°48'0 0.0
2016-Jun-22 22:33N 55°17' E 014°48'0 0.0
2016-Jun-22 21:33N 55°17' E 014°48'0 0.0
2016-Jun-22 20:33N 55°17' E 014°48'1 1.1
2016-Jun-22 19:33N 55°18' E 014°47'1 0.9
2016-Jun-22 18:18N 55°17' E 014°48'0 0.0
2016-Jun-22 17:30N 55°17' E 014°48'0 0.0
2016-Jun-22 16:18N 55°17' E 014°48'0 0.0
2016-Jun-22 15:30N 55°17' E 014°48'0 0.0
2016-Jun-22 14:18N 55°17' E 014°48'0 0.0
2016-Jun-22 13:30N 55°17' E 014°48'0 0.0
2016-Jun-22 12:23N 55°17' E 014°48'0 0.0
2016-Jun-22 11:33N 55°17' E 014°48'0 0.0
2016-Jun-22 10:20N 55°17' E 014°48'0 0.0
2016-Jun-22 09:14N 55°17' E 014°48'0 0.0
2016-Jun-22 08:32N 55°17' E 014°48'0 0.0
2016-Jun-22 07:26N 55°17' E 014°48'0 0.0
2016-Jun-22 06:26N 55°17' E 014°48'0 0.0
2016-Jun-22 05:26N 55°17' E 014°48'0 0.0
2016-Jun-22 04:32N 55°17' E 014°48'0 0.0
2016-Jun-22 03:26N 55°17' E 014°48'0 0.0
2016-Jun-22 02:32N 55°17' E 014°48'0 0.0
2016-Jun-22 01:32N 55°17' E 014°48'0 0.0
2016-Jun-22 00:32N 55°17' E 014°48'0 0.0
2016-Jun-21 23:32N 55°17' E 014°48'0 0.0
2016-Jun-21 22:32N 55°17' E 014°48'0 0.0
2016-Jun-21 21:32N 55°17' E 014°48'0 0.0
2016-Jun-21 20:32N 55°17' E 014°48'0 0.0
2016-Jun-21 19:32N 55°17' E 014°48'0 0.0
2016-Jun-21 18:29N 55°17' E 014°48'0 0.0
2016-Jun-21 17:26N 55°17' E 014°48'2 1.9
2016-Jun-21 16:34N 55°17' E 014°51'2 0.8
2016-Jun-21 14:22N 55°17' E 014°48'0 0.0
2016-Jun-21 13:28N 55°17' E 014°48'0 0.0
2016-Jun-21 12:22N 55°17' E 014°48'0 0.0
2016-Jun-21 11:22N 55°17' E 014°48'0 0.0
2016-Jun-21 10:28N 55°17' E 014°48'0 0.0
2016-Jun-21 09:31N 55°17' E 014°48'0 0.0
2016-Jun-21 08:16N 55°17' E 014°48'0 0.0
2016-Jun-21 07:16N 55°17' E 014°48'3 1.0
2016-Jun-21 04:33N 55°19' E 014°47'3 2.0
2016-Jun-21 03:11N 55°17' E 014°48'0 0.0
2016-Jun-21 02:29N 55°17' E 014°48'0 0.0
2016-Jun-21 01:29N 55°17' E 014°48'0 0.0
2016-Jun-21 00:17N 55°17' E 014°48'0 0.0
2016-Jun-20 23:29N 55°17' E 014°48'3 2.8
2016-Jun-20 22:33N 55°19' E 014°46'  

Dump ship's entire track history